»·PEaware :: SWA505 KELP-KABQ

SWA505 :: KELP-KABQ

FLIGHT INFORMATION

Flight Status: Arrived
Operator:
Southwest Airlines
More flights by this operator :: More flights under this callsign
Pilot: Michael D. (17574)
Aircraft: BOEING 737-800
(B738)
More flights by this aircraft type
Origin: KELP El Paso Intl
United States
Destination: KABQ Albuquerque Intl Sunport
United States
More flights between these airports :: More routes between these airports
Route: +XMRKS KRKEE3
File this flight plan on PilotEdge
Remarks: PBN / A1B1C1D1S1S2 NAV / RNVD1E2A1 REG / N806SB EET / 0 KZAB0003 RMK / SIMBRIEF
Altitude:
(Current/Filed)
22,000ft
Speed:
(Current/Filed)
439kts
Departed: 10-Jan-18 07:46 PM
Arrived: 10-Jan-18 08:39 PM
Distance/Time
Traveled:
195nm/0:53
Distance/Time
To Go:
Arrived

Flight Plot

Page will automatically refresh every two minutes.

Flight plan parsing failed; only flown route is shown


Map Options




Map Legend


Flown Route
Filed Route
Departure Airport
Arrival Airport
Navaid (VOR, NDB)
Fix

Horizontal Profiles

Position Reports

Time Latitude Longitude Heading Altitude Ground
Speed
10-Jan-18 19:25 31.799620 -106.393746 349 3923ft 0kts
10-Jan-18 19:26 31.799620 -106.393746 349 3923ft 0kts
10-Jan-18 19:27 31.799620 -106.393746 349 3923ft 0kts
10-Jan-18 19:28 31.799620 -106.393746 349 3923ft 0kts
10-Jan-18 19:29 31.799620 -106.393746 349 3923ft 0kts
10-Jan-18 19:30 31.799620 -106.393746 349 3923ft 0kts
10-Jan-18 19:31 31.799620 -106.393746 349 3923ft 0kts
10-Jan-18 19:32 31.799620 -106.393746 349 3923ft 0kts
10-Jan-18 19:33 31.799620 -106.393746 349 3923ft 0kts
10-Jan-18 19:34 31.799620 -106.393746 349 3923ft 0kts
10-Jan-18 19:35 31.799620 -106.393746 349 3923ft 0kts
10-Jan-18 19:36 31.799620 -106.393746 349 3923ft 0kts
10-Jan-18 19:37 31.799620 -106.393746 349 3923ft 0kts
10-Jan-18 19:38 31.799615 -106.393746 338 3923ft 0kts
10-Jan-18 19:39 31.799615 -106.393746 338 3923ft 0kts
10-Jan-18 19:40 31.799606 -106.393741 335 3923ft 1kts
10-Jan-18 19:41 31.799176 -106.393893 65 3922ft 1kts
10-Jan-18 19:42 31.799164 -106.393921 62 3922ft 0kts
10-Jan-18 19:43 31.799164 -106.393921 62 3922ft 0kts
10-Jan-18 19:44 31.799164 -106.393921 62 3922ft 0kts
10-Jan-18 19:45 31.799811 -106.391562 80 3925ft 15kts
10-Jan-18 19:46 31.799904 -106.385584 90 3934ft 21kts
10-Jan-18 19:47 31.799845 -106.377194 93 3943ft 30kts
10-Jan-18 19:48 31.799377 -106.367772 92 3958ft 29kts
10-Jan-18 19:49 31.799372 -106.360359 4 3948ft 7kts
10-Jan-18 19:50 31.799541 -106.360348 357 3948ft 0kts
10-Jan-18 19:51 31.799614 -106.360347 353 3948ft 1kts
10-Jan-18 19:52 31.800980 -106.366736 272 3958ft 90kts
10-Jan-18 19:53 31.803070 -106.412506 257 5490ft 155kts
10-Jan-18 19:54 31.778556 -106.459083 243 6542ft 187kts
10-Jan-18 19:55 31.770516 -106.518994 299 7719ft 216kts
10-Jan-18 19:56 31.807627 -106.579404 321 8809ft 245kts
10-Jan-18 19:57 31.877698 -106.597051 345 10017ft 266kts
10-Jan-18 19:58 31.951880 -106.610129 345 11142ft 273kts
10-Jan-18 19:59 32.027613 -106.623993 341 12199ft 276kts
10-Jan-18 20:00 32.083988 -106.677849 313 13270ft 268kts
10-Jan-18 20:01 32.137376 -106.737205 323 14365ft 269kts
10-Jan-18 20:02 32.199847 -106.785556 323 15500ft 272kts
10-Jan-18 20:03 32.263745 -106.835828 322 16640ft 280kts
10-Jan-18 20:04 32.328977 -106.887317 323 17768ft 284kts
10-Jan-18 20:05 32.394562 -106.939095 323 18885ft 284kts
10-Jan-18 20:06 32.459833 -106.990620 323 19989ft 281kts
10-Jan-18 20:07 32.525522 -107.042491 323 21140ft 299kts
10-Jan-18 20:08 32.598769 -107.100285 323 21957ft 344kts
10-Jan-18 20:09 32.678523 -107.163131 323 21932ft 344kts
10-Jan-18 20:10 32.758286 -107.226003 323 21914ft 346kts
10-Jan-18 20:11 32.838230 -107.289001 323 21891ft 346kts
10-Jan-18 20:12 32.918190 -107.351988 324 21890ft 346kts
10-Jan-18 20:13 33.013466 -107.367677 3 21899ft 378kts
10-Jan-18 20:14 33.115157 -107.342079 3 21897ft 383kts
10-Jan-18 20:15 33.219580 -107.316593 3 21898ft 383kts
10-Jan-18 20:16 33.323539 -107.293764 352 21884ft 372kts
10-Jan-18 20:17 33.420493 -107.324336 348 21881ft 368kts
10-Jan-18 20:18 33.524433 -107.314900 357 21894ft 378kts
10-Jan-18 20:19 33.628616 -107.303158 357 21893ft 377kts
10-Jan-18 20:20 33.732110 -107.280573 356 21895ft 376kts
10-Jan-18 20:21 33.836349 -107.269662 357 21883ft 377kts
10-Jan-18 20:22 33.940268 -107.258839 357 21882ft 377kts
10-Jan-18 20:23 34.044663 -107.247941 357 21882ft 377kts
10-Jan-18 20:24 34.130969 -107.238911 357 21891ft 376kts
10-Jan-18 20:25 34.234745 -107.228033 357 21890ft 377kts
10-Jan-18 20:26 34.338534 -107.217135 357 21889ft 377kts
10-Jan-18 20:27 34.441893 -107.203813 3 21021ft 361kts
10-Jan-18 20:28 34.534073 -107.193300 356 20963ft 332kts
10-Jan-18 20:29 34.626899 -107.184397 356 20660ft 352kts
10-Jan-18 20:30 34.718862 -107.175262 355 20302ft 304kts
10-Jan-18 20:31 34.801504 -107.167238 355 18474ft 298kts
10-Jan-18 20:32 34.882723 -107.155676 13 16635ft 309kts
10-Jan-18 20:33 34.942949 -107.078008 25 14992ft 310kts
10-Jan-18 20:34 35.018603 -107.044626 8 13432ft 286kts
10-Jan-18 20:35 35.092810 -107.029013 349 12210ft 253kts
10-Jan-18 20:36 35.149480 -107.009459 47 11383ft 261kts
10-Jan-18 20:37 35.130764 -106.932837 167 10036ft 265kts
10-Jan-18 20:38 35.064903 -106.931637 188 9331ft 216kts
10-Jan-18 20:39 35.012720 -106.909138 153 8632ft 185kts
10-Jan-18 20:40 35.007312 -106.851865 58 8031ft 183kts
10-Jan-18 20:41 35.029621 -106.796934 58 8000ft 179kts
10-Jan-18 20:42 35.044828 -106.739858 83 8029ft 181kts
10-Jan-18 20:43 35.044427 -106.678984 87 6749ft 178kts
10-Jan-18 20:44 35.044391 -106.622531 87 5409ft 154kts
10-Jan-18 20:45 35.045001 -106.598595 318 5333ft 13kts
10-Jan-18 20:46 35.045746 -106.602601 270 5326ft 13kts
10-Jan-18 20:47 35.045786 -106.608406 271 5323ft 15kts
10-Jan-18 20:48 35.046562 -106.611932 263 5323ft 8kts
10-Jan-18 20:49 35.047005 -106.614007 308 5322ft 0kts
10-Jan-18 20:50 35.047005 -106.614007 308 5322ft 0kts
10-Jan-18 20:51 35.047005 -106.614007 308 5322ft 0kts
10-Jan-18 20:52 35.047005 -106.614007 308 5322ft 0kts
10-Jan-18 20:53 35.047005 -106.614007 308 5322ft 0kts

Navigation Log

Ident Type
Flight plan parsing failed, navigation log unavailable